Pagrindinis puslapis
METAR-TAF:

METAR-TAF

Oro uostai :

Abadanas, Iranas

platuma: 30-22N, ilguma: 048-15E, Aukštis: 3 m

Dabartinis oras

Ataskaita buvo paskelbta 44 minutes, ne 23:00 UTC
Vėjas 10 kt iš Šiaurės/Šiaurės Vakarų
Temperatūra 34°C
Drėgmė 18%
Slėgis 1003 hPa
Matomumas 10 km arba daugiau
nėra debesų žemiau 1500 m ir nėra kamuolinių lietaus debesų

METAR: OIAA 052300Z 34010KT CAVOK 34/06 Q1003

Laikas: 04:14 (23:44 UTC)

Prognozė

Ataskaita buvo paskelbta 34 minutes, ne 23:10 UTC
Prognozė galioja nuo 06 metu 00 UTC su 07 metu 06 UTC
Vėjas 14 kt iš Šiaurės/Šiaurės Vakarų
Matomumas 10 km arba daugiau
nėra debesų žemiau 1500 m ir nėra kamuolinių lietaus debesų
Laikinai
nuo 06 metu 09 UTC su 06 metu 16 UTC
Vėjas 26 kt iš Šiaurės/Šiaurės Vakarų
Matomumas: 3000 m
Smėlis

TAF: OIAA 052310Z 0600/0706 33014KT CAVOK TEMPO 0609/0616 33026KT 3000 SA

Orai ataskaitas ir orų prognozės (METAR, TAF).

turimą stotys yra geltonos ir raudonos taškus žemėlapyje.

Perkelti pele per norėdami pamatyti stoties vardą.

Tada spustelėkite, norėdami matyti oro stebėjimo ir prognozės.

Norėdami pakeisti žemėlapį: spustelėkite ant žalios mygtukų su juodo kryžiaus žemyn,; žalią mygtuką su brūkšneliu, jei norite nutolinti; arba žalių rodyklių gretimoms žemėlapius.


METAR-TAF: